Time;durP1;ratioP1;P1;durP2;ratioP2;P2;SDS_P1;SDS_P2;PMS_P1;PMS_P2;Temp;Humidity;BMP_temperature;BMP_pressure;BME280_temperature;BME280_humidity;BME280_pressure;Samples;Min_cycle;Max_cycle;Signal;HPM_P1;HPM_P2
2022/09/02 00:01:27;;;;;;;17.70;8.85;;;;;;;20.84;89.18;96261.09;5134312;27;20043;-59
2022/09/02 00:04:00;;;;;;;15.40;9.57;;;;;;;20.78;88.99;96269.63;5134272;27;20100;-59
2022/09/02 00:06:28;;;;;;;14.35;9.65;;;;;;;20.70;89.83;96270.25;5134251;27;20054;-58
2022/09/02 00:08:55;;;;;;;11.45;8.68;;;;;;;20.68;89.53;96264.22;5134118;27;20078;-58
2022/09/02 00:11:26;;;;;;;17.35;9.50;;;;;;;20.63;90.36;96265.59;5134096;27;20134;-59
2022/09/02 00:13:54;;;;;;;22.92;10.50;;;;;;;20.61;90.37;96263.06;5133947;27;20051;-60
2022/09/02 00:16:23;;;;;;;18.48;10.23;;;;;;;20.61;90.17;96263.06;5133886;28;20075;-60
2022/09/02 00:18:50;;;;;;;14.77;9.98;;;;;;;20.56;91.03;96271.41;5133958;28;20100;-59
2022/09/02 00:21:20;;;;;;;18.05;9.88;;;;;;;20.53;90.92;96265.53;5134056;27;20115;-59
2022/09/02 00:23:48;;;;;;;13.35;9.18;;;;;;;20.50;90.90;96263.13;5137816;27;20058;-60
2022/09/02 00:26:15;;;;;;;17.27;9.60;;;;;;;20.44;91.21;96264.47;5138342;27;20100;-60
2022/09/02 00:28:42;;;;;;;24.05;10.73;;;;;;;20.46;91.55;96265.16;5138376;27;20531;-60
2022/09/02 00:31:09;;;;;;;12.95;10.38;;;;;;;20.45;91.53;96268.81;5138139;27;20043;-59
2022/09/02 00:33:36;;;;;;;17.45;9.35;;;;;;;20.43;91.54;96253.00;5138095;27;20447;-60
2022/09/02 00:36:04;;;;;;;12.55;9.90;;;;;;;20.48;91.39;96260.59;5138202;27;20150;-58
2022/09/02 00:38:34;;;;;;;14.93;10.15;;;;;;;20.50;91.70;96263.13;5138135;27;20502;-59
2022/09/02 00:41:04;;;;;;;15.97;9.50;;;;;;;20.47;91.29;96258.06;5138086;27;20130;-59
2022/09/02 00:43:42;;;;;;;16.08;9.95;;;;;;;20.45;91.09;96259.03;5138180;27;20054;-60
2022/09/02 00:46:10;;;;;;;14.65;10.35;;;;;;;20.40;91.64;96258.56;5138003;27;20070;-61
2022/09/02 00:48:41;;;;;;;15.70;10.10;;;;;;;20.37;91.42;96253.50;5137854;27;20085;-60
2022/09/02 00:51:09;;;;;;;16.13;9.95;;;;;;;20.41;91.93;96251.44;5137739;27;20051;-59
2022/09/02 00:53:40;;;;;;;15.93;9.98;;;;;;;20.41;91.71;96252.25;5137742;27;20043;-59
2022/09/02 00:56:12;;;;;;;16.23;10.18;;;;;;;20.40;91.75;96257.69;5137820;27;20126;-61
2022/09/02 00:58:40;;;;;;;16.40;9.48;;;;;;;20.48;91.27;96251.75;5137766;27;20096;-58
2022/09/02 01:01:07;;;;;;;15.48;9.18;;;;;;;20.48;91.36;96252.63;5137710;27;20120;-60
2022/09/02 01:03:35;;;;;;;11.23;9.52;;;;;;;20.45;91.37;96255.53;5137603;27;20423;-58
2022/09/02 01:06:02;;;;;;;15.20;9.45;;;;;;;20.42;91.72;96253.97;5137674;27;20089;-59
2022/09/02 01:08:34;;;;;;;20.77;10.13;;;;;;;20.45;91.55;96266.16;5137410;27;20127;-58
2022/09/02 01:11:05;;;;;;;13.50;9.43;;;;;;;20.47;91.14;96260.72;5137314;27;20043;-59
2022/09/02 01:13:37;;;;;;;15.82;9.93;;;;;;;20.43;91.38;96257.44;5137413;27;20446;-60
2022/09/02 01:16:10;;;;;;;13.75;9.50;;;;;;;20.49;90.66;96256.94;5137227;27;20047;-60
2022/09/02 01:18:38;;;;;;;17.15;9.20;;;;;;;20.48;89.69;96255.28;5137423;27;20113;-59
2022/09/02 01:21:05;;;;;;;15.27;9.75;;;;;;;20.50;89.45;96261.28;5137278;27;20556;-58
2022/09/02 01:23:35;;;;;;;15.40;9.07;;;;;;;20.52;89.12;96264.66;5137133;27;20122;-60
2022/09/02 01:26:02;;;;;;;15.05;9.52;;;;;;;20.51;90.58;96254.16;5137135;27;20138;-61
2022/09/02 01:28:32;;;;;;;16.60;9.10;;;;;;;20.46;89.27;96254.53;5137013;27;20074;-60
2022/09/02 01:30:59;;;;;;;12.63;8.80;;;;;;;20.42;89.55;96256.63;5137108;27;20100;-60
2022/09/02 01:33:27;;;;;;;17.00;10.07;;;;;;;20.40;89.10;96253.25;5136604;27;20043;-58
2022/09/02 01:35:54;;;;;;;18.45;10.38;;;;;;;20.37;89.64;96258.81;5136587;27;20075;-59
2022/09/02 01:38:22;;;;;;;22.48;9.52;;;;;;;20.27;89.63;96266.69;5136958;27;20056;-59
2022/09/02 01:40:51;;;;;;;17.42;9.82;;;;;;;20.27;89.68;96266.69;5136852;27;20480;-59
2022/09/02 01:43:21;;;;;;;14.52;8.57;;;;;;;20.29;89.01;96254.13;5136755;27;20047;-58
2022/09/02 01:45:50;;;;;;;12.98;9.70;;;;;;;20.31;88.99;96256.66;5136778;27;20127;-59
2022/09/02 01:48:18;;;;;;;14.35;9.13;;;;;;;20.31;89.87;96252.19;5136773;27;20466;-59
2022/09/02 01:50:49;;;;;;;16.45;8.50;;;;;;;20.37;88.19;96257.94;5136798;27;20126;-59
2022/09/02 01:53:16;;;;;;;15.38;9.88;;;;;;;20.33;87.78;96252.91;5136599;27;20484;-60
2022/09/02 01:55:43;;;;;;;20.17;9.30;;;;;;;20.30;88.25;96258.47;5136526;27;20043;-59
2022/09/02 01:58:12;;;;;;;14.73;9.50;;;;;;;20.31;88.42;96251.34;5136643;27;20043;-59
2022/09/02 02:00:39;;;;;;;12.32;8.57;;;;;;;20.25;88.30;96250.03;5136484;27;20134;-58
2022/09/02 02:03:06;;;;;;;20.92;9.02;;;;;;;20.22;87.72;96255.59;5136371;27;20047;-59
2022/09/02 02:05:33;;;;;;;12.25;7.82;;;;;;;20.20;87.47;96250.41;5136366;27;20127;-59
2022/09/02 02:08:00;;;;;;;13.88;8.65;;;;;;;20.19;87.54;96247.88;5136277;27;20047;-60
2022/09/02 02:10:28;;;;;;;14.30;8.65;;;;;;;20.10;88.20;96251.31;5136253;27;20051;-59
2022/09/02 02:12:55;;;;;;;13.38;8.65;;;;;;;20.08;87.97;96243.47;5136262;27;20443;-60
2022/09/02 02:15:24;;;;;;;15.18;9.00;;;;;;;20.12;89.34;96246.69;5135869;27;20075;-59
2022/09/02 02:17:52;;;;;;;21.13;9.40;;;;;;;20.11;88.71;96247.69;5136407;27;20066;-60
2022/09/02 02:20:20;;;;;;;11.63;8.95;;;;;;;20.05;88.10;96241.88;5136094;27;20057;-58
2022/09/02 02:22:48;;;;;;;15.60;9.82;;;;;;;20.08;89.14;96240.81;5136306;27;20059;-59
2022/09/02 02:25:17;;;;;;;12.18;8.25;;;;;;;20.08;88.77;96246.13;5135921;27;20074;-60
2022/09/02 02:27:45;;;;;;;16.70;8.10;;;;;;;20.06;88.12;96243.59;5136021;27;20047;-59
2022/09/02 02:30:14;;;;;;;13.98;8.50;;;;;;;20.11;88.10;96240.56;5135991;27;20079;-59
2022/09/02 02:32:43;;;;;;;14.38;8.45;;;;;;;20.10;88.25;96240.69;5135826;27;20043;-59
2022/09/02 02:35:11;;;;;;;12.60;8.38;;;;;;;20.08;88.52;96246.13;5135853;27;20043;-60
2022/09/02 02:37:38;;;;;;;14.75;8.65;;;;;;;20.02;88.40;96236.81;5135695;27;20043;-59
2022/09/02 02:40:06;;;;;;;11.77;7.82;;;;;;;20.03;88.50;96243.00;5135766;27;20074;-59
2022/09/02 02:42:34;;;;;;;11.48;7.75;;;;;;;20.00;88.72;96237.91;5135754;27;20099;-59
2022/09/02 02:45:01;;;;;;;10.05;8.13;;;;;;;19.99;88.16;96237.06;5135167;27;20134;-60
2022/09/02 02:47:28;;;;;;;15.85;8.30;;;;;;;20.02;88.87;96230.69;5134880;27;20047;-58
2022/09/02 02:49:56;;;;;;;18.83;8.10;;;;;;;20.02;88.47;96228.88;5135543;27;20112;-60
2022/09/02 02:52:23;;;;;;;10.20;8.23;;;;;;;20.03;88.96;96229.72;5135531;27;20088;-60
2022/09/02 02:54:51;;;;;;;13.20;8.48;;;;;;;20.04;88.67;96226.94;5135444;27;20135;-60
2022/09/02 02:57:18;;;;;;;14.13;8.45;;;;;;;20.05;89.52;96227.78;5135561;27;20454;-58
2022/09/02 02:59:45;;;;;;;14.13;9.07;;;;;;;20.04;89.60;96221.63;5135424;27;20050;-59
2022/09/02 03:02:12;;;;;;;11.60;9.43;;;;;;;20.07;89.81;96226.69;5135289;27;20046;-60
2022/09/02 03:04:40;;;;;;;19.35;11.25;;;;;;;20.06;90.87;96225.00;5135299;27;20049;-59
2022/09/02 03:07:09;;;;;;;13.55;10.18;;;;;;;20.08;90.41;96215.09;5135336;27;20074;-59
2022/09/02 03:09:36;;;;;;;17.65;11.40;;;;;;;20.00;90.72;96221.97;5135167;27;20450;-60
2022/09/02 03:12:04;;;;;;;13.10;10.10;;;;;;;20.01;90.94;96229.00;5135016;27;20043;-60
2022/09/02 03:14:31;;;;;;;16.00;10.43;;;;;;;20.03;91.41;96225.25;5135061;27;20043;-59
2022/09/02 03:16:58;;;;;;;14.27;10.30;;;;;;;20.02;90.89;96217.44;5134885;27;20043;-59
2022/09/02 03:19:26;;;;;;;16.27;11.35;;;;;;;19.98;91.36;96221.28;5135118;27;20047;-59
2022/09/02 03:21:53;;;;;;;12.95;9.05;;;;;;;20.00;90.83;96222.81;5134771;27;20051;-60
2022/09/02 03:24:22;;;;;;;19.08;11.38;;;;;;;19.98;91.01;96221.28;5135055;27;20043;-58
2022/09/02 03:26:50;;;;;;;15.38;9.77;;;;;;;20.00;91.29;96227.28;5134965;27;20122;-60
2022/09/02 03:29:17;;;;;;;15.82;10.50;;;;;;;20.00;91.21;96236.09;5134914;27;20050;-59
2022/09/02 03:31:44;;;;;;;12.63;9.82;;;;;;;20.02;90.59;96223.56;5134869;27;20103;-58
2022/09/02 03:34:11;;;;;;;13.90;9.30;;;;;;;20.05;91.09;96225.97;5134700;27;20054;-60
2022/09/02 03:36:42;;;;;;;16.85;10.20;;;;;;;20.09;90.48;96239.84;5134740;27;20057;-60
2022/09/02 03:39:11;;;;;;;14.27;10.05;;;;;;;20.05;90.86;96233.94;5134706;27;20055;-59
2022/09/02 03:41:41;;;;;;;14.30;9.98;;;;;;;20.07;90.18;96236.44;5134625;27;20058;-60
2022/09/02 03:44:08;;;;;;;17.67;8.93;;;;;;;20.08;89.36;96241.63;5134549;27;20047;-59
2022/09/02 03:46:36;;;;;;;17.58;8.93;;;;;;;20.04;89.72;96242.00;5134527;27;20075;-59
2022/09/02 03:49:04;;;;;;;13.65;8.13;;;;;;;19.99;90.50;96247.69;5134439;27;20492;-58
2022/09/02 03:51:31;;;;;;;10.77;8.82;;;;;;;19.97;90.53;96252.25;5134383;27;20074;-60
2022/09/02 03:53:59;;;;;;;13.88;8.80;;;;;;;19.94;90.36;96249.84;5134426;27;20050;-60
2022/09/02 03:56:26;;;;;;;14.23;8.35;;;;;;;19.95;90.43;96254.19;5134417;27;20100;-60
2022/09/02 03:58:55;;;;;;;20.05;8.07;;;;;;;19.98;90.57;96253.94;5134156;27;20043;-61
2022/09/02 04:01:24;;;;;;;13.65;8.63;;;;;;;19.99;90.34;96244.19;5134259;27;20096;-60
2022/09/02 04:03:52;;;;;;;11.88;8.20;;;;;;;20.02;90.26;96250.09;5134296;27;20503;-60
2022/09/02 04:06:23;;;;;;;12.32;8.23;;;;;;;20.04;90.11;96255.28;5134155;27;20043;-60
2022/09/02 04:08:51;;;;;;;15.98;8.80;;;;;;;20.03;89.70;96253.59;5134264;27;20070;-59
2022/09/02 04:11:21;;;;;;;11.80;7.85;;;;;;;20.04;89.46;96256.13;5134143;27;20054;-59
2022/09/02 04:13:50;;;;;;;12.55;7.78;;;;;;;20.05;88.95;96251.69;5134152;27;20043;-59
2022/09/02 04:16:26;;;;;;;7.75;6.90;;;;;;;20.07;88.70;96253.25;5133926;27;20438;-60
2022/09/02 04:18:55;;;;;;;11.05;7.10;;;;;;;20.07;88.72;96252.38;5134257;27;20043;-60
2022/09/02 04:21:23;;;;;;;10.70;7.68;;;;;;;20.07;88.80;96255.03;5134235;27;20050;-59
2022/09/02 04:23:51;;;;;;;12.15;6.88;;;;;;;20.09;88.91;96258.41;5134194;27;20100;-59
2022/09/02 04:26:19;;;;;;;6.82;5.93;;;;;;;20.08;87.56;96254.91;5134074;27;20079;-60
2022/09/02 04:28:47;;;;;;;15.55;6.63;;;;;;;20.08;88.53;96262.88;5133920;27;20043;-59
2022/09/02 04:31:17;;;;;;;10.00;6.78;;;;;;;20.12;87.76;96259.97;5133945;27;20492;-60
2022/09/02 04:33:46;;;;;;;15.32;7.00;;;;;;;20.07;87.91;96263.00;5133900;27;20069;-59
2022/09/02 04:36:17;;;;;;;10.98;6.95;;;;;;;20.09;87.22;96266.38;5133985;27;20126;-60
2022/09/02 04:38:44;;;;;;;14.20;6.45;;;;;;;20.11;87.25;96266.25;5133963;27;20057;-59
2022/09/02 04:41:13;;;;;;;13.93;6.03;;;;;;;20.15;87.37;96267.69;5133926;27;20051;-60
2022/09/02 04:43:41;;;;;;;9.27;5.78;;;;;;;20.18;87.02;96263.00;5133834;27;20054;-59
2022/09/02 04:46:10;;;;;;;11.80;6.43;;;;;;;20.21;86.44;96269.84;5133923;27;20515;-58
2022/09/02 04:48:38;;;;;;;15.50;6.50;;;;;;;20.30;86.63;96273.56;5133969;27;20053;-58
2022/09/02 04:51:09;;;;;;;12.45;6.05;;;;;;;20.33;85.17;96271.50;5133927;27;20481;-59
2022/09/02 04:53:36;;;;;;;;;;;;;;;20.33;85.21;96270.66;5134236;27;20108;-59
2022/09/02 04:56:04;;;;;;;8.80;5.47;;;;;;;20.25;85.10;96273.09;5133762;27;19919;-59
2022/09/02 04:58:32;;;;;;;6.93;4.72;;;;;;;20.27;85.33;96272.00;5133842;27;20074;-59
2022/09/02 05:00:59;;;;;;;10.68;5.40;;;;;;;20.32;85.56;96269.81;5133971;27;20044;-58
2022/09/02 05:03:27;;;;;;;8.80;5.68;;;;;;;20.37;85.36;96280.06;5133802;27;20057;-59
2022/09/02 05:06:01;;;;;;;8.77;5.45;;;;;;;20.41;85.30;96284.13;5133755;27;20183;-60
2022/09/02 05:08:30;;;;;;;12.15;5.20;;;;;;;20.41;84.72;96281.47;5133608;27;20077;-59
2022/09/02 05:10:57;;;;;;;12.13;5.43;;;;;;;20.42;84.58;96285.00;5137312;27;20104;-59
2022/09/02 05:13:25;;;;;;;11.25;6.05;;;;;;;20.40;84.07;96289.56;5137617;27;20505;-59
2022/09/02 05:15:53;;;;;;;6.45;5.35;;;;;;;20.42;84.44;96283.19;5137160;27;20560;-58
2022/09/02 05:18:20;;;;;;;7.97;5.07;;;;;;;20.44;84.18;96283.88;5137478;27;20551;-59
2022/09/02 05:20:47;;;;;;;10.40;5.20;;;;;;;20.38;83.64;96286.22;5137309;27;20139;-60
2022/09/02 05:23:15;;;;;;;6.63;4.97;;;;;;;20.37;83.60;96280.06;5137219;27;20051;-58
2022/09/02 05:25:44;;;;;;;12.52;5.47;;;;;;;20.32;84.41;96277.78;5137121;27;20500;-58
2022/09/02 05:28:11;;;;;;;12.63;6.03;;;;;;;20.41;84.24;96281.47;5137273;27;20488;-58
2022/09/02 05:30:41;;;;;;;7.13;4.78;;;;;;;20.46;84.33;96286.41;5137120;27;20443;-60
2022/09/02 05:33:13;;;;;;;10.10;5.13;;;;;;;20.40;84.01;96286.91;5137095;27;20439;-60
2022/09/02 05:35:41;;;;;;;6.28;5.00;;;;;;;20.42;84.33;96292.97;5137123;27;20047;-59
2022/09/02 05:38:09;;;;;;;6.45;4.70;;;;;;;20.45;83.50;96284.75;5136960;27;20403;-59
2022/09/02 05:40:37;;;;;;;9.45;5.63;;;;;;;20.54;83.74;96296.41;5137070;27;20085;-60
2022/09/02 05:43:06;;;;;;;7.68;5.40;;;;;;;20.49;83.55;96283.50;5136861;27;20051;-59
2022/09/02 05:45:34;;;;;;;12.98;5.28;;;;;;;20.53;83.47;96292.09;5136952;27;20039;-59
2022/09/02 05:49:04;;;;;;;7.43;4.45;;;;;;;20.48;82.55;96287.16;5136791;27;20454;-60
2022/09/02 05:50:49;;;;;;;6.13;4.55;;;;;;;20.50;83.41;96297.66;5136941;27;20146;-60
2022/09/02 05:53:16;;;;;;;10.02;4.93;;;;;;;20.47;82.37;96285.47;5136655;27;20051;-60
2022/09/02 05:55:43;;;;;;;10.52;4.88;;;;;;;20.52;82.85;96285.06;5136628;27;20134;-59
2022/09/02 05:58:12;;;;;;;6.50;4.50;;;;;;;20.53;83.08;96281.47;5136600;27;20039;-59
2022/09/02 06:00:39;;;;;;;8.38;5.32;;;;;;;20.53;81.71;96274.31;5136560;27;20070;-59
2022/09/02 06:03:07;;;;;;;6.60;4.30;;;;;;;20.58;82.71;96295.19;5136389;27;20048;-59
2022/09/02 06:05:36;;;;;;;9.57;5.43;;;;;;;20.63;82.74;96287.69;5136577;27;20043;-59
2022/09/02 06:08:03;;;;;;;6.07;4.68;;;;;;;20.64;81.71;96285.84;5136534;27;20051;-60
2022/09/02 06:10:31;;;;;;;7.65;5.03;;;;;;;20.67;81.81;96285.59;5136266;27;20118;-60
2022/09/02 06:12:58;;;;;;;11.25;4.57;;;;;;;20.62;81.54;96291.28;5136347;27;20065;-59
2022/09/02 06:15:29;;;;;;;11.20;5.38;;;;;;;20.60;81.72;96289.75;5136213;27;20047;-59
2022/09/02 06:17:58;;;;;;;9.02;5.40;;;;;;;20.59;81.34;96286.25;5136216;27;20085;-59
2022/09/02 06:20:27;;;;;;;11.50;5.45;;;;;;;20.63;81.72;96289.50;5135910;27;20070;-58
2022/09/02 06:22:55;;;;;;;12.07;4.57;;;;;;;20.67;81.20;96297.09;5136152;27;20043;-59
2022/09/02 06:25:22;;;;;;;6.78;5.18;;;;;;;20.66;80.87;96292.75;5136194;27;20047;-59
2022/09/02 06:27:49;;;;;;;6.85;4.03;;;;;;;20.76;81.39;96287.50;5135968;27;20055;-59
2022/09/02 06:30:16;;;;;;;5.85;4.35;;;;;;;20.84;80.44;96294.84;5135980;27;20104;-60
2022/09/02 06:32:45;;;;;;;8.23;4.25;;;;;;;21.01;80.78;96293.44;5135965;27;20485;-59
2022/09/02 06:35:13;;;;;;;7.93;4.50;;;;;;;21.12;80.31;96299.66;5135780;27;20059;-59
2022/09/02 06:37:40;;;;;;;8.32;4.45;;;;;;;21.17;78.42;96294.81;5135705;27;20545;-60
2022/09/02 06:40:08;;;;;;;7.28;4.68;;;;;;;21.26;79.55;96301.16;5135879;27;20047;-60
2022/09/02 06:42:36;;;;;;;10.88;4.95;;;;;;;21.26;78.24;96295.81;5135777;27;20046;-60
2022/09/02 06:45:03;;;;;;;7.93;4.03;;;;;;;21.29;78.31;96300.88;5135623;27;20070;-59
2022/09/02 06:47:30;;;;;;;11.45;4.50;;;;;;;21.41;78.12;96310.47;5135569;27;20082;-59
2022/09/02 06:50:00;;;;;;;7.50;4.28;;;;;;;21.46;77.12;96305.59;5135658;27;20043;-59
2022/09/02 06:52:27;;;;;;;6.55;4.60;;;;;;;21.70;75.63;96307.09;5135567;27;20043;-61
2022/09/02 06:54:55;;;;;;;6.00;3.90;;;;;;;21.92;76.51;96315.91;5135527;27;20133;-60
2022/09/02 06:57:22;;;;;;;9.27;4.90;;;;;;;22.13;76.84;96304.34;5135544;27;20050;-59
2022/09/02 06:59:49;;;;;;;12.45;4.22;;;;;;;22.19;74.55;96306.41;5135444;27;20126;-60
2022/09/02 07:02:16;;;;;;;8.98;4.57;;;;;;;22.11;74.13;96310.75;5135304;27;20483;-60
2022/09/02 07:07:29;;;;;;;8.73;4.13;;;;;;;22.20;74.30;96302.78;5135465;27;20054;-59
2022/09/02 07:09:56;;;;;;;11.00;4.70;;;;;;;22.16;73.70;96311.19;5135172;27;20527;-59
2022/09/02 07:12:26;;;;;;;8.63;4.57;;;;;;;22.16;74.06;96309.38;5135190;27;20055;-60
2022/09/02 07:14:54;;;;;;;8.20;4.97;;;;;;;22.27;72.98;96316.41;5134959;27;20066;-59
2022/09/02 07:17:22;;;;;;;14.73;4.35;;;;;;;22.36;73.66;96321.91;5134803;27;20130;-59
2022/09/02 07:19:49;;;;;;;9.07;4.55;;;;;;;22.25;74.08;96320.19;5134880;27;20039;-60
2022/09/02 07:22:16;;;;;;;8.13;4.63;;;;;;;22.20;74.32;96329.44;5134867;27;20051;-59
2022/09/02 07:24:45;;;;;;;9.57;4.38;;;;;;;22.20;74.78;96331.25;5135071;27;20047;-59
2022/09/02 07:27:12;;;;;;;10.90;5.03;;;;;;;22.12;74.44;96325.78;5135065;27;20050;-59
2022/09/02 07:29:40;;;;;;;11.43;5.78;;;;;;;22.11;75.63;96330.25;5134932;27;20504;-59
2022/09/02 07:32:07;;;;;;;8.15;4.60;;;;;;;22.03;75.05;96330.91;5134112;27;20499;-59
2022/09/02 07:34:35;;;;;;;11.48;4.82;;;;;;;22.04;75.30;96332.63;5134512;27;20142;-59
2022/09/02 07:37:04;;;;;;;8.57;4.85;;;;;;;22.12;75.07;96331.09;5134540;27;20051;-60
2022/09/02 07:39:31;;;;;;;8.27;4.47;;;;;;;22.21;75.35;96330.25;5134646;27;20062;-60
2022/09/02 07:42:01;;;;;;;10.63;4.80;;;;;;;22.34;75.18;96328.19;5134721;27;20051;-60
2022/09/02 07:44:28;;;;;;;10.30;5.05;;;;;;;22.46;73.34;96320.91;5134543;27;20504;-60
2022/09/02 07:46:55;;;;;;;13.13;4.97;;;;;;;22.73;72.60;96323.91;5134590;27;20047;-59
2022/09/02 07:49:23;;;;;;;11.85;4.40;;;;;;;23.10;73.41;96323.19;5134466;27;20078;-60
2022/09/02 07:51:51;;;;;;;9.65;4.32;;;;;;;23.53;71.50;96327.31;5134353;27;20397;-60
2022/09/02 07:54:20;;;;;;;5.90;3.90;;;;;;;24.08;67.95;96333.72;5134263;27;20054;-59
2022/09/02 07:56:48;;;;;;;7.90;4.10;;;;;;;24.72;65.75;96331.06;5134196;27;20043;-60
2022/09/02 07:59:18;;;;;;;6.85;4.63;;;;;;;25.18;66.80;96322.13;5134445;27;20051;-59
2022/09/02 08:01:47;;;;;;;7.17;4.17;;;;;;;25.43;63.85;96330.31;5134372;27;20095;-59
2022/09/02 08:04:14;;;;;;;13.20;4.38;;;;;;;25.63;63.41;96327.47;5134385;27;20051;-60
2022/09/02 08:06:41;;;;;;;8.63;3.90;;;;;;;25.52;62.01;96323.19;5134204;27;20043;-60
2022/09/02 08:09:11;;;;;;;9.38;4.45;;;;;;;25.41;62.47;96321.63;5134270;27;20111;-59
2022/09/02 08:11:39;;;;;;;6.23;3.70;;;;;;;25.36;62.21;96322.09;5134290;27;20049;-60
2022/09/02 08:14:07;;;;;;;7.70;3.60;;;;;;;25.65;62.16;96321.97;5134155;27;20322;-60
2022/09/02 08:16:36;;;;;;;7.20;4.60;;;;;;;26.22;60.45;96331.25;5133821;27;20090;-60
2022/09/02 08:19:04;;;;;;;12.43;4.53;;;;;;;26.44;59.10;96332.53;5134161;27;20043;-60
2022/09/02 08:21:31;;;;;;;6.68;4.45;;;;;;;26.01;59.31;96324.47;5134008;27;20132;-60
2022/09/02 08:23:59;;;;;;;9.60;4.88;;;;;;;25.86;58.99;96316.22;5134153;27;20043;-59
2022/09/02 08:26:27;;;;;;;10.18;4.43;;;;;;;25.91;60.51;96310.38;5134220;27;20048;-59
2022/09/02 08:28:54;;;;;;;8.93;4.95;;;;;;;25.92;61.16;96315.56;5134003;27;20043;-59
2022/09/02 08:31:21;;;;;;;10.05;4.88;;;;;;;25.74;60.67;96319.16;5133997;27;20047;-59
2022/09/02 08:33:50;;;;;;;11.15;4.45;;;;;;;25.58;60.54;96303.81;5134102;27;20047;-60
2022/09/02 08:36:17;;;;;;;5.72;4.13;;;;;;;25.37;61.41;96306.88;5133914;27;20515;-58
2022/09/02 08:38:45;;;;;;;9.77;5.05;;;;;;;25.21;62.48;96311.13;5133993;27;20047;-60
2022/09/02 08:41:19;;;;;;;6.95;4.53;;;;;;;25.11;63.29;96305.03;5133817;27;20060;-59
2022/09/02 08:43:48;;;;;;;4.85;4.20;;;;;;;25.07;61.83;96301.00;5135703;27;20510;-59
2022/09/02 08:46:18;;;;;;;10.23;4.57;;;;;;;24.93;62.56;96297.03;5138000;27;20412;-59
2022/09/02 08:48:51;;;;;;;9.80;4.87;;;;;;;24.91;62.34;96293.66;5138136;27;20043;-60
2022/09/02 08:51:24;;;;;;;7.82;5.53;;;;;;;24.88;61.62;96288.63;5137842;27;20449;-60
2022/09/02 08:53:58;;;;;;;7.22;5.35;;;;;;;24.81;62.82;96297.25;5137903;27;20053;-59
2022/09/02 08:56:27;;;;;;;12.02;4.90;;;;;;;25.02;61.68;96288.09;5137749;27;20096;-58
2022/09/02 08:58:55;;;;;;;9.90;4.60;;;;;;;25.04;61.68;96285.25;5137711;27;20039;-61
2022/09/02 09:01:30;;;;;;;7.13;4.45;;;;;;;25.18;61.06;96286.50;5137732;27;20047;-59
2022/09/02 09:04:19;;;;;;;7.00;4.82;;;;;;;25.38;59.02;96275.59;5137706;27;20069;-60
2022/09/02 09:07:04;;;;;;;10.38;4.63;;;;;;;25.85;61.45;96275.19;5137561;27;20552;-60
2022/09/02 09:09:41;;;;;;;9.43;4.63;;;;;;;26.36;58.98;96278.88;5137401;27;20053;-60
2022/09/02 09:12:16;;;;;;;9.60;4.75;;;;;;;26.21;57.47;96275.97;5137577;27;20102;-60
2022/09/02 09:14:50;;;;;;;6.15;4.25;;;;;;;25.93;58.56;96276.22;5137393;27;20079;-59
2022/09/02 09:17:26;;;;;;;6.30;3.92;;;;;;;25.53;60.05;96276.69;5137069;27;20043;-59
2022/09/02 09:19:59;;;;;;;5.80;3.95;;;;;;;25.06;60.98;96272.53;5137470;27;20082;-60
2022/09/02 09:22:31;;;;;;;8.98;4.13;;;;;;;24.65;63.05;96267.69;5137312;27;20047;-60
2022/09/02 09:24:58;;;;;;;7.47;4.80;;;;;;;24.38;64.24;96266.78;5137310;27;20049;-59
2022/09/02 09:27:27;;;;;;;7.47;3.67;;;;;;;24.19;64.45;96268.59;5137177;27;20047;-60
2022/09/02 09:29:54;;;;;;;6.07;4.18;;;;;;;24.00;64.34;96274.84;5137142;27;20480;-59
2022/09/02 09:32:27;;;;;;;9.35;4.30;;;;;;;23.92;64.99;96271.09;5137345;27;20051;-59
2022/09/02 09:35:00;;;;;;;6.10;4.20;;;;;;;23.78;65.62;96272.44;5137025;27;20476;-60
2022/09/02 09:37:33;;;;;;;8.57;4.15;;;;;;;23.77;65.55;96264.56;5136958;27;20043;-60
2022/09/02 09:40:00;;;;;;;12.52;4.50;;;;;;;23.78;65.72;96264.41;5136902;27;20496;-59
2022/09/02 09:42:33;;;;;;;9.50;3.90;;;;;;;23.91;65.24;96264.09;5136938;27;20497;-60
2022/09/02 09:45:00;;;;;;;10.65;4.28;;;;;;;24.13;64.66;96264.69;5136879;27;20130;-59
2022/09/02 09:47:28;;;;;;;10.23;4.63;;;;;;;24.34;65.23;96263.56;5136730;27;20043;-59
2022/09/02 09:50:12;;;;;;;7.30;4.43;;;;;;;24.94;62.06;96264.78;5136799;27;20047;-59
2022/09/02 09:52:39;;;;;;;7.63;3.78;;;;;;;25.49;61.03;96262.78;5136770;27;20126;-59
2022/09/02 09:55:18;;;;;;;6.60;3.92;;;;;;;25.71;57.56;96262.41;5135971;27;20055;-59
2022/09/02 09:57:48;;;;;;;15.63;5.10;;;;;;;25.76;57.51;96261.94;5136652;27;20050;-59
2022/09/02 10:00:21;;;;;;;9.25;4.47;;;;;;;25.62;58.36;96256.19;5136531;27;20096;-60
2022/09/02 10:02:51;;;;;;;10.20;4.85;;;;;;;25.53;59.03;96249.06;5136943;27;20047;-59
2022/09/02 10:05:31;;;;;;;14.50;4.32;;;;;;;25.85;58.25;96248.41;5136399;27;20130;-60
2022/09/02 10:07:59;;;;;;;13.43;4.60;;;;;;;26.28;57.94;96239.47;5136593;27;20051;-59
2022/09/02 10:10:29;;;;;;;8.70;4.03;;;;;;;26.81;55.32;96230.28;5136373;27;20126;-59
2022/09/02 10:12:59;;;;;;;10.07;4.47;;;;;;;26.99;53.99;96239.03;5136502;27;20055;-60
2022/09/02 10:15:40;;;;;;;8.38;4.25;;;;;;;27.07;54.32;96237.34;5136323;27;20108;-59
2022/09/02 10:18:16;;;;;;;8.27;4.22;;;;;;;26.94;55.79;96244.03;5136102;27;20085;-59
2022/09/02 10:20:52;;;;;;;8.25;4.50;;;;;;;26.87;53.33;96235.84;5136252;27;20040;-60
2022/09/02 10:23:36;;;;;;;9.45;4.70;;;;;;;26.76;54.22;96241.56;5136121;27;20051;-60
2022/09/02 10:26:12;;;;;;;7.80;4.00;;;;;;;26.77;54.91;96243.22;5136054;27;20084;-59
2022/09/02 10:29:12;;;;;;;7.43;4.30;;;;;;;26.46;55.45;96244.69;5135963;27;20047;-60
2022/09/02 10:31:50;;;;;;;6.20;3.63;;;;;;;26.30;56.54;96236.63;5135941;27;20043;-60
2022/09/02 10:34:24;;;;;;;10.20;4.38;;;;;;;26.37;57.86;96238.50;5135845;27;20071;-58
2022/09/02 10:37:11;;;;;;;8.48;4.30;;;;;;;26.68;57.32;96228.97;5135747;27;20120;-59
2022/09/02 10:40:01;;;;;;;7.88;3.95;;;;;;;26.81;55.07;96231.16;5135823;27;20043;-59
2022/09/02 10:42:39;;;;;;;6.93;4.55;;;;;;;26.97;54.72;96232.97;5135812;27;20100;-60
2022/09/02 10:45:16;;;;;;;9.70;4.43;;;;;;;26.97;54.15;96232.97;5135737;27;20061;-59
2022/09/02 10:47:49;;;;;;;9.13;4.57;;;;;;;27.06;54.49;96228.44;5135697;27;20143;-59
2022/09/02 10:50:21;;;;;;;7.88;4.07;;;;;;;27.15;53.57;96220.41;5135746;27;20044;-60
2022/09/02 10:53:02;;;;;;;5.65;3.67;;;;;;;27.16;52.38;96222.06;5135497;27;20043;-60
2022/09/02 10:55:40;;;;;;;8.95;4.07;;;;;;;27.11;53.04;96218.06;5135732;27;20054;-60
2022/09/02 10:58:13;;;;;;;11.40;4.45;;;;;;;27.19;53.81;96211.84;5135367;27;20104;-59
2022/09/02 11:00:50;;;;;;;8.10;3.50;;;;;;;27.41;52.14;96203.19;5135367;27;20039;-59
2022/09/02 11:03:24;;;;;;;7.95;4.07;;;;;;;27.64;50.86;96197.94;5135424;27;20084;-59
2022/09/02 11:05:54;;;;;;;6.90;3.70;;;;;;;27.75;50.77;96200.25;5135325;27;20043;-60
2022/09/02 11:08:33;;;;;;;9.77;4.13;;;;;;;27.54;52.26;96197.31;5134455;27;20043;-59
2022/09/02 11:11:05;;;;;;;13.90;4.82;;;;;;;27.48;52.51;96194.28;5135258;27;20051;-59
2022/09/02 11:13:38;;;;;;;5.15;4.07;;;;;;;27.39;51.93;96189.94;5135053;27;20095;-59
2022/09/02 11:16:14;;;;;;;10.73;4.35;;;;;;;27.43;53.08;96185.09;5134734;27;20055;-59
2022/09/02 11:18:47;;;;;;;6.28;4.18;;;;;;;27.51;52.87;96182.34;5135116;27;20065;-59
2022/09/02 11:21:31;;;;;;;11.85;4.57;;;;;;;27.50;52.89;96178.84;5134897;27;20511;-59
2022/09/02 11:24:03;;;;;;;8.48;4.03;;;;;;;27.56;51.70;96176.47;5134900;27;20051;-60
2022/09/02 11:26:37;;;;;;;7.65;4.05;;;;;;;27.67;49.51;96177.97;5134996;27;20075;-59
2022/09/02 11:29:12;;;;;;;10.45;3.90;;;;;;;27.60;50.77;96175.94;5134989;27;20497;-59
2022/09/02 11:31:43;;;;;;;9.57;4.55;;;;;;;27.48;50.36;96174.69;5134791;27;20043;-59
2022/09/02 11:34:20;;;;;;;10.10;3.95;;;;;;;27.63;49.34;96175.59;5134733;27;20078;-59
2022/09/02 11:36:48;;;;;;;9.07;4.05;;;;;;;27.77;50.45;96177.72;5134527;27;20047;-59
2022/09/02 11:39:21;;;;;;;8.85;4.10;;;;;;;27.72;49.98;96170.22;5134607;27;20498;-59
2022/09/02 11:42:07;;;;;;;8.02;4.47;;;;;;;27.51;51.33;96179.66;5134805;27;20047;-60
2022/09/02 11:45:02;;;;;;;9.77;4.93;;;;;;;27.50;51.29;96181.53;5134763;27;20047;-59